createdAt,value
2022-08-04T00:01:41.996Z,13.4
2022-08-04T00:06:39.935Z,13.4
2022-08-04T00:11:37.934Z,13.3
2022-08-04T00:16:37.692Z,13.2
2022-08-04T00:21:33.775Z,13
2022-08-04T00:26:31.641Z,12.9
2022-08-04T00:31:33.152Z,12.9
2022-08-04T00:36:27.518Z,12.9
2022-08-04T00:41:25.719Z,12.8
2022-08-04T00:46:23.614Z,12.7
2022-08-04T00:51:21.502Z,12.6
2022-08-04T00:56:19.380Z,12.6
2022-08-04T01:01:17.431Z,12.6
2022-08-04T01:06:15.539Z,12.7
2022-08-04T01:11:13.519Z,12.6
2022-08-04T01:16:11.467Z,12.5
2022-08-04T01:21:09.506Z,12.4
2022-08-04T01:26:42.870Z,12.3
2022-08-04T01:31:05.460Z,12.2
2022-08-04T01:36:03.585Z,12.1
2022-08-04T01:41:01.479Z,12.1
2022-08-04T01:45:59.377Z,12.1
2022-08-04T01:50:57.504Z,12.1
2022-08-04T01:55:55.801Z,12.1
2022-08-04T02:00:56.431Z,12
2022-08-04T02:06:02.757Z,12
2022-08-04T02:10:49.424Z,11.9
2022-08-04T02:15:47.391Z,11.9
2022-08-04T02:20:45.634Z,11.8
2022-08-04T02:25:43.618Z,11.8
2022-08-04T02:30:41.782Z,11.8
2022-08-04T02:35:39.689Z,11.7
2022-08-04T02:40:37.703Z,11.6
2022-08-04T02:45:35.801Z,11.6
2022-08-04T02:50:33.768Z,11.6
2022-08-04T02:55:31.761Z,11.5
2022-08-04T03:00:29.793Z,11.6
2022-08-04T03:05:27.895Z,11.5
2022-08-04T03:10:25.972Z,11.4
2022-08-04T03:15:24.104Z,11.4
2022-08-04T03:20:22.158Z,11.4
2022-08-04T03:25:20.215Z,11.3
2022-08-04T03:30:18.250Z,11.4
2022-08-04T03:35:22.731Z,11.4
2022-08-04T03:40:14.593Z,11.6
2022-08-04T03:45:20.627Z,12.2
2022-08-04T03:50:12.068Z,13.6
2022-08-04T03:55:12.138Z,15.5
2022-08-04T04:00:11.360Z,16.6
2022-08-04T04:05:10.248Z,17.1
2022-08-04T04:10:09.152Z,18.2
2022-08-04T04:15:08.188Z,19.5
2022-08-04T04:20:07.499Z,20.6
2022-08-04T04:25:06.944Z,21
2022-08-04T04:30:02.626Z,18.3
2022-08-04T04:34:59.420Z,17.6
2022-08-04T04:39:58.495Z,19
2022-08-04T04:44:56.646Z,18.5
2022-08-04T04:49:55.033Z,17.8
2022-08-04T04:54:53.169Z,18
2022-08-04T05:04:49.982Z,19.1
2022-08-04T05:09:51.195Z,20.5
2022-08-04T05:14:49.709Z,21.2
2022-08-04T05:19:47.630Z,22.2
2022-08-04T05:24:46.629Z,22.6
2022-08-04T05:29:46.273Z,25.8
2022-08-04T05:34:45.944Z,27
2022-08-04T05:39:46.451Z,28
2022-08-04T05:44:46.437Z,28.9
2022-08-04T05:49:42.115Z,30.3
2022-08-04T05:54:41.210Z,31
2022-08-04T05:59:37.596Z,29.4
2022-08-04T06:04:36.915Z,31
2022-08-04T06:09:35.310Z,31.7
2022-08-04T06:14:33.928Z,31.6
2022-08-04T06:19:58.141Z,31.8
2022-08-04T06:24:31.490Z,32
2022-08-04T06:29:30.370Z,32.6
2022-08-04T06:34:28.635Z,32.8
2022-08-04T06:39:27.313Z,33.1
2022-08-04T06:44:26.468Z,34.1
2022-08-04T06:49:24.936Z,34.6
2022-08-04T06:54:23.542Z,35
2022-08-04T06:59:22.404Z,35.5
2022-08-04T07:04:20.794Z,36
2022-08-04T07:09:18.905Z,35.9
2022-08-04T07:14:16.296Z,36
2022-08-04T07:19:18.612Z,36.9
2022-08-04T07:24:13.478Z,37.3
2022-08-04T07:29:12.302Z,36.7
2022-08-04T07:34:17.475Z,38.2
2022-08-04T07:39:09.502Z,37.6
2022-08-04T07:44:08.141Z,39.1
2022-08-04T07:49:07.189Z,39.2
2022-08-04T07:54:03.720Z,34.9
2022-08-04T07:59:01.254Z,37.6
2022-08-04T08:04:03.293Z,40.8
2022-08-04T08:09:00.774Z,39.9
2022-08-04T08:13:59.168Z,39.7
2022-08-04T08:18:58.891Z,41.7
2022-08-04T08:23:56.654Z,37.6
2022-08-04T08:28:50.928Z,35.5
2022-08-04T08:33:52.831Z,36.3
2022-08-04T08:38:55.846Z,39.4
2022-08-04T08:44:00.738Z,37.9
2022-08-04T08:48:52.739Z,38.5
2022-08-04T08:53:50.622Z,37
2022-08-04T08:58:48.766Z,39
2022-08-04T09:03:46.623Z,36.9
2022-08-04T09:08:45.188Z,39.8
2022-08-04T09:13:43.129Z,38.9
2022-08-04T09:18:41.012Z,37.8
2022-08-04T09:23:39.550Z,39.2
2022-08-04T09:28:53.368Z,39.4
2022-08-04T09:33:44.200Z,39.4
2022-08-04T09:38:33.024Z,39.2
2022-08-04T09:43:57.353Z,39.3
2022-08-04T09:48:29.600Z,39.3
2022-08-04T09:53:27.318Z,39.3
2022-08-04T09:58:26.321Z,39.2
2022-08-04T10:03:24.370Z,39.9
2022-08-04T10:08:22.653Z,40.3
2022-08-04T10:13:20.423Z,40.1
2022-08-04T10:18:18.951Z,39.9
2022-08-04T10:23:15.434Z,38.6
2022-08-04T10:28:15.412Z,40.2
2022-08-04T10:33:14.362Z,40.5
2022-08-04T10:38:12.844Z,42
2022-08-04T10:43:20.646Z,38.8
2022-08-04T10:48:06.431Z,35.1
2022-08-04T10:53:01.774Z,32.7
2022-08-04T10:57:58.690Z,30.8
2022-08-04T11:02:56.277Z,30.5
2022-08-04T11:07:53.944Z,30.3
2022-08-04T11:12:52.255Z,30.4
2022-08-04T11:17:50.427Z,30.8
2022-08-04T11:22:48.625Z,30.6
2022-08-04T11:27:46.850Z,32.1
2022-08-04T11:32:50.146Z,37.3
2022-08-04T11:37:50.379Z,39.8
2022-08-04T11:42:48.727Z,40.6
2022-08-04T11:47:47.714Z,40.9
2022-08-04T11:52:45.927Z,40.8
2022-08-04T11:57:44.453Z,40.9
2022-08-04T12:02:42.523Z,40.4
2022-08-04T12:07:41.827Z,39.2
2022-08-04T12:12:37.096Z,39
2022-08-04T12:17:52.227Z,39.8
2022-08-04T12:22:34.508Z,40
2022-08-04T12:27:32.815Z,40.3
2022-08-04T12:32:30.782Z,40.3
2022-08-04T12:37:28.908Z,39.7
2022-08-04T12:42:26.100Z,39.4
2022-08-04T12:47:36.133Z,38.6
2022-08-04T12:52:20.940Z,37.1
2022-08-04T12:57:15.042Z,32.5
2022-08-04T13:02:12.116Z,31.4
2022-08-04T13:07:08.608Z,30.8
2022-08-04T13:12:05.935Z,30.1
2022-08-04T13:17:03.621Z,29.9
2022-08-04T13:22:02.404Z,29.8
2022-08-04T13:27:03.435Z,30
2022-08-04T13:31:56.882Z,29.7
2022-08-04T13:36:54.471Z,28.8
2022-08-04T13:41:53.865Z,32.1
2022-08-04T13:46:53.655Z,32.2
2022-08-04T13:51:57.066Z,29.6
2022-08-04T13:56:49.424Z,32.2
2022-08-04T14:01:47.215Z,32.3
2022-08-04T14:06:45.208Z,31.8
2022-08-04T14:12:07.408Z,31.6
2022-08-04T14:16:41.667Z,32.3
2022-08-04T14:21:39.287Z,31.2
2022-08-04T14:26:36.429Z,30.2
2022-08-04T14:31:33.665Z,29.6
2022-08-04T14:36:31.278Z,29.1
2022-08-04T14:41:29.412Z,28.4
2022-08-04T14:46:30.385Z,27.6
2022-08-04T14:51:26.071Z,26.5
2022-08-04T14:56:37.757Z,26
2022-08-04T15:01:19.216Z,26.2
2022-08-04T15:06:21.748Z,26.3
2022-08-04T15:11:22.610Z,26.7
2022-08-04T15:16:14.901Z,26.9
2022-08-04T15:21:13.767Z,27.3
2022-08-04T15:26:12.021Z,27
2022-08-04T15:31:10.406Z,26.4
2022-08-04T15:36:07.542Z,26.1
2022-08-04T15:41:05.819Z,25.9
2022-08-04T15:46:37.462Z,25.8
2022-08-04T15:51:02.234Z,26
2022-08-04T15:56:00.601Z,26.1
2022-08-04T16:00:58.993Z,26.4
2022-08-04T16:05:57.754Z,26.5
2022-08-04T16:10:56.247Z,26.8
2022-08-04T16:15:54.553Z,26.7
2022-08-04T16:20:52.537Z,26.5
2022-08-04T16:25:50.594Z,26.1
2022-08-04T16:30:48.455Z,26.1
2022-08-04T16:35:46.055Z,26
2022-08-04T16:40:44.213Z,25.9
2022-08-04T16:45:42.289Z,25.7
2022-08-04T16:50:40.223Z,25.4
2022-08-04T16:55:38.333Z,25.2
2022-08-04T17:00:36.452Z,24.8
2022-08-04T17:05:38.139Z,24.3
2022-08-04T17:10:32.124Z,23.7
2022-08-04T17:15:29.650Z,23
2022-08-04T17:20:27.338Z,22.4
2022-08-04T17:25:51.534Z,21.8
2022-08-04T17:30:22.936Z,21.2
2022-08-04T17:35:20.682Z,20.7
2022-08-04T17:40:22.957Z,20.4
2022-08-04T17:45:48.991Z,20
2022-08-04T17:50:14.572Z,19.7
2022-08-04T17:55:14.917Z,19.5
2022-08-04T18:00:13.565Z,19.4
2022-08-04T18:05:11.451Z,19.2
2022-08-04T18:10:30.389Z,19.1
2022-08-04T18:15:05.790Z,19
2022-08-04T18:20:03.391Z,18.9
2022-08-04T18:25:01.557Z,18.8
2022-08-04T18:30:15.684Z,18.6
2022-08-04T18:34:58.266Z,18.3
2022-08-04T18:40:10.331Z,18.2
2022-08-04T18:44:54.692Z,18
2022-08-04T18:50:32.130Z,17.8
2022-08-04T18:54:53.901Z,17.7
2022-08-04T18:59:51.732Z,17.6
2022-08-04T19:04:52.218Z,17.4
2022-08-04T19:09:51.667Z,17.5
2022-08-04T19:14:49.595Z,17.2
2022-08-04T19:19:47.437Z,17.3
2022-08-04T19:24:43.596Z,17.2
2022-08-04T19:29:42.998Z,17
2022-08-04T19:34:40.472Z,17
2022-08-04T19:39:40.368Z,17
2022-08-04T19:44:37.138Z,17.1
2022-08-04T19:50:03.522Z,16.8
2022-08-04T19:54:33.536Z,16.7
2022-08-04T19:59:32.313Z,16.6
2022-08-04T20:04:31.309Z,16.6
2022-08-04T20:09:28.581Z,16.4
2022-08-04T20:14:31.808Z,16.3
2022-08-04T20:19:24.889Z,16.4
2022-08-04T20:24:37.379Z,16.4
2022-08-04T20:29:39.940Z,16.3
2022-08-04T20:34:19.301Z,16.1
2022-08-04T20:39:17.479Z,16.1
2022-08-04T20:44:20.241Z,16.1
2022-08-04T20:49:13.854Z,16
2022-08-04T20:54:16.358Z,15.9
2022-08-04T20:59:10.191Z,15.9
2022-08-04T21:04:08.432Z,15.9
2022-08-04T21:09:09.478Z,15.9
2022-08-04T21:14:05.633Z,15.9
2022-08-04T21:19:04.007Z,15.9
2022-08-04T21:24:01.041Z,15.8
2022-08-04T21:28:59.105Z,15.8
2022-08-04T21:33:57.245Z,15.7
2022-08-04T21:38:55.573Z,15.6
2022-08-04T21:43:53.474Z,15.6
2022-08-04T21:48:51.612Z,15.5
2022-08-04T21:58:48.490Z,15.2
2022-08-04T22:03:52.065Z,15
2022-08-04T22:08:44.402Z,14.9
2022-08-04T22:13:52.301Z,14.7
2022-08-04T22:18:40.967Z,14.7
2022-08-04T22:23:40.767Z,14.6
2022-08-04T22:28:37.148Z,14.4
2022-08-04T22:33:54.219Z,14.4
2022-08-04T22:38:46.601Z,14.3
2022-08-04T22:43:34.251Z,14.4
2022-08-04T22:48:31.907Z,14.2
2022-08-04T22:53:27.675Z,14.1
2022-08-04T22:58:28.581Z,14
2022-08-04T23:03:36.654Z,14
2022-08-04T23:08:21.687Z,14
2022-08-04T23:13:19.833Z,14.1
2022-08-04T23:18:17.899Z,13.9
2022-08-04T23:23:15.994Z,13.9
2022-08-04T23:28:14.027Z,13.9
2022-08-04T23:33:12.137Z,13.9
2022-08-04T23:38:30.749Z,13.9
2022-08-04T23:43:10.504Z,13.9
2022-08-04T23:48:14.420Z,13.8
2022-08-04T23:53:04.954Z,13.7
2022-08-04T23:58:05.420Z,13.6
